Time;durP1;ratioP1;P1;durP2;ratioP2;P2;SDS_P1;SDS_P2;PMS_P1;PMS_P2;Temp;Humidity;BMP_temperature;BMP_pressure;BME280_temperature;BME280_humidity;BME280_pressure;Samples;Min_cycle;Max_cycle;Signal;HPM_P1;HPM_P2
2021/07/22 00:01:28;;;;;;;26.55;17.65;;;16.40;52.70;;;;;;5067472;28;20381;-77
2021/07/22 00:03:54;;;;;;;25.23;16.75;;;16.40;53.00;;;;;;5050927;28;20464;-77
2021/07/22 00:06:20;;;;;;;25.83;15.93;;;16.40;53.30;;;;;;5068900;28;20392;-77
2021/07/22 00:08:45;;;;;;;29.40;17.60;;;16.50;53.70;;;;;;5068225;28;20400;-78
2021/07/22 00:11:11;;;;;;;21.27;14.97;;;16.60;52.10;;;;;;5068712;28;20485;-77
2021/07/22 00:13:36;;;;;;;26.63;16.48;;;16.60;52.20;;;;;;5068192;28;20397;-77
2021/07/22 00:16:02;;;;;;;27.00;17.10;;;16.60;52.20;;;;;;5049214;28;20407;-77
2021/07/22 00:18:29;;;;;;;24.93;16.33;;;16.60;52.10;;;;;;5066845;28;20389;-76
2021/07/22 00:20:55;;;;;;;23.23;15.57;;;16.60;51.80;;;;;;5067000;28;20391;-76
2021/07/22 00:23:20;;;;;;;26.17;16.13;;;16.60;51.80;;;;;;5049081;28;20385;-76
2021/07/22 00:25:46;;;;;;;26.60;16.97;;;16.80;50.50;;;;;;5064931;28;20392;-76
2021/07/22 00:28:12;;;;;;;22.65;15.40;;;16.70;50.30;;;;;;5067100;28;20380;-76
2021/07/22 00:30:38;;;;;;;26.53;16.37;;;16.80;50.30;;;;;;5066850;28;20446;-76
2021/07/22 00:33:04;;;;;;;25.57;16.90;;;16.80;50.20;;;;;;5067973;28;20381;-77
2021/07/22 00:35:29;;;;;;;25.55;15.65;;;16.70;50.60;;;;;;5067454;28;20897;-77
2021/07/22 00:37:55;;;;;;;25.35;16.75;;;16.70;50.70;;;;;;5066490;28;20423;-75
2021/07/22 00:40:21;;;;;;;25.38;15.70;;;16.70;50.40;;;;;;5068764;28;20968;-76
2021/07/22 00:42:55;;;;;;;21.70;16.15;;;16.90;50.80;;;;;;5073035;28;20408;-76
2021/07/22 00:45:21;;;;;;;28.08;16.05;;;16.90;49.90;;;;;;5066212;28;20396;-77
2021/07/22 00:47:46;;;;;;;24.35;16.25;;;17.00;49.10;;;;;;5037909;28;20900;-76
2021/07/22 00:50:12;;;;;;;23.08;15.93;;;17.10;48.50;;;;;;5033979;28;20758;-76
2021/07/22 00:52:37;;;;;;;25.97;15.27;;;17.10;47.50;;;;;;5036403;28;20394;-77
2021/07/22 00:55:03;;;;;;;25.60;15.27;;;17.10;47.90;;;;;;5034358;28;20403;-76
2021/07/22 00:57:29;;;;;;;27.95;16.65;;;17.10;48.30;;;;;;5053463;28;20419;-76
2021/07/22 00:59:55;;;;;;;27.75;16.67;;;17.20;47.40;;;;;;5058009;28;20937;-77
2021/07/22 01:02:21;;;;;;;24.40;15.47;;;17.20;46.90;;;;;;5057799;28;20432;-76
2021/07/22 01:04:46;;;;;;;23.17;15.70;;;17.30;46.50;;;;;;5040302;28;20874;-76
2021/07/22 01:07:12;;;;;;;23.60;15.40;;;17.20;46.80;;;;;;5057789;28;20423;-76
2021/07/22 01:09:37;;;;;;;27.80;15.75;;;17.20;47.10;;;;;;5055153;28;20696;-76
2021/07/22 01:12:03;;;;;;;28.20;16.50;;;17.20;46.80;;;;;;5052846;28;20382;-76
2021/07/22 01:14:29;;;;;;;24.73;15.70;;;17.20;46.70;;;;;;5038345;28;20393;-77
2021/07/22 01:16:55;;;;;;;28.70;16.40;;;17.20;46.80;;;;;;5041744;28;20409;-76
2021/07/22 01:19:20;;;;;;;24.00;15.00;;;17.20;46.90;;;;;;5037452;28;20436;-77
2021/07/22 01:21:46;;;;;;;23.10;15.93;;;17.30;46.60;;;;;;5059398;28;20442;-77
2021/07/22 01:24:11;;;;;;;25.20;15.00;;;17.30;46.20;;;;;;5056574;28;20385;-76
2021/07/22 01:26:37;;;;;;;24.90;15.20;;;17.30;46.20;;;;;;5035149;28;20454;-77
2021/07/22 01:29:04;;;;;;;23.23;15.70;;;17.20;46.40;;;;;;5053121;28;20377;-76
2021/07/22 01:31:30;;;;;;;24.10;15.97;;;17.20;46.10;;;;;;5052520;28;20385;-76
2021/07/22 01:33:55;;;;;;;23.13;15.90;;;17.30;45.10;;;;;;5053238;28;20385;-76
2021/07/22 01:36:24;;;;;;;24.07;15.13;;;17.30;45.20;;;;;;5052913;28;20451;-77
2021/07/22 01:38:51;;;;;;;23.38;15.05;;;17.20;45.10;;;;;;5053366;28;20882;-76
2021/07/22 01:41:17;;;;;;;23.30;14.93;;;17.20;45.40;;;;;;5058331;28;20390;-76
2021/07/22 01:43:42;;;;;;;20.97;13.97;;;17.10;45.90;;;;;;5061975;28;20745;-77
2021/07/22 01:46:08;;;;;;;20.80;14.43;;;17.00;46.40;;;;;;5056785;28;20830;-76
2021/07/22 01:48:33;;;;;;;25.52;15.70;;;17.00;46.40;;;;;;5019554;28;20855;-76
2021/07/22 01:50:59;;;;;;;23.00;14.70;;;17.10;45.80;;;;;;5032314;28;20403;-76
2021/07/22 01:53:24;;;;;;;23.73;15.63;;;17.00;46.00;;;;;;5048742;28;20421;-75
2021/07/22 01:55:50;;;;;;;23.23;14.90;;;16.90;46.90;;;;;;5052381;28;20436;-76
2021/07/22 01:58:15;;;;;;;20.07;13.77;;;16.80;47.50;;;;;;5051443;28;20431;-77
2021/07/22 02:00:41;;;;;;;21.43;14.40;;;16.70;48.00;;;;;;5051381;28;20464;-77
2021/07/22 02:03:07;;;;;;;24.55;15.80;;;16.60;48.60;;;;;;5051785;28;20421;-76
2021/07/22 02:05:32;;;;;;;23.83;15.38;;;16.60;49.00;;;;;;5052157;28;20870;-76
2021/07/22 02:07:58;;;;;;;26.60;14.83;;;16.50;49.30;;;;;;5050711;28;20408;-76
2021/07/22 02:10:24;;;;;;;23.80;15.70;;;16.40;49.80;;;;;;5051182;28;20389;-75
2021/07/22 02:12:49;;;;;;;25.97;15.27;;;16.30;50.30;;;;;;5051379;28;20888;-76
2021/07/22 02:15:15;;;;;;;22.17;14.57;;;16.30;50.40;;;;;;5051436;28;20459;-76
2021/07/22 02:17:40;;;;;;;26.23;15.68;;;16.30;50.10;;;;;;5051452;28;20385;-75
2021/07/22 02:20:08;;;;;;;23.95;15.63;;;16.30;50.80;;;;;;5051162;28;20874;-76
2021/07/22 02:22:33;;;;;;;23.05;14.65;;;16.20;51.50;;;;;;5050964;28;20397;-75
2021/07/22 02:24:59;;;;;;;27.27;15.13;;;16.10;52.50;;;;;;5051370;28;20377;-75
2021/07/22 02:27:24;;;;;;;22.70;15.63;;;16.10;53.50;;;;;;5051303;28;20448;-74
2021/07/22 02:29:50;;;;;;;25.10;15.70;;;16.10;53.60;;;;;;5051239;28;20892;-75
2021/07/22 02:32:16;;;;;;;21.53;14.60;;;16.00;54.00;;;;;;5051093;28;20955;-74
2021/07/22 02:34:42;;;;;;;21.95;15.20;;;15.90;54.80;;;;;;5050931;28;20388;-76
2021/07/22 02:37:07;;;;;;;24.20;15.57;;;15.80;55.60;;;;;;5033145;28;20417;-76
2021/07/22 02:39:35;;;;;;;25.15;15.10;;;15.80;56.70;;;;;;5050989;28;20389;-76
2021/07/22 02:42:01;;;;;;;25.08;15.20;;;15.70;57.50;;;;;;5032633;28;20404;-77
2021/07/22 02:44:26;;;;;;;23.60;15.10;;;15.70;57.80;;;;;;5051021;28;20381;-76
2021/07/22 02:46:52;;;;;;;28.80;16.10;;;15.90;57.40;;;;;;5039429;28;20875;-76
2021/07/22 02:49:17;;;;;;;30.73;17.70;;;16.00;55.20;;;;;;5013158;28;20914;-76
2021/07/22 02:51:43;;;;;;;24.70;16.50;;;15.90;55.50;;;;;;5023737;28;20408;-77
2021/07/22 02:54:10;;;;;;;24.23;15.10;;;15.80;56.50;;;;;;5050596;28;20377;-75
2021/07/22 02:56:36;;;;;;;23.73;15.40;;;15.70;57.60;;;;;;5050889;28;20426;-76
2021/07/22 02:59:01;;;;;;;22.07;14.93;;;15.70;58.50;;;;;;5052436;28;20703;-77
2021/07/22 03:01:27;;;;;;;25.30;15.30;;;15.60;58.50;;;;;;5050962;28;20780;-75
2021/07/22 03:03:52;;;;;;;26.92;16.15;;;15.50;59.40;;;;;;5051473;28;20400;-76
2021/07/22 03:06:18;;;;;;;22.30;14.77;;;15.50;59.90;;;;;;5050829;28;20385;-75
2021/07/22 03:08:43;;;;;;;24.30;15.60;;;15.40;60.20;;;;;;5050745;28;20854;-75
2021/07/22 03:11:10;;;;;;;27.00;16.07;;;15.40;61.10;;;;;;5050403;28;20815;-74
2021/07/22 03:13:35;;;;;;;24.20;15.17;;;15.30;61.80;;;;;;5050837;28;20969;-76
2021/07/22 03:16:01;;;;;;;23.53;15.63;;;15.40;62.20;;;;;;5050246;28;20449;-76
2021/07/22 03:18:27;;;;;;;26.47;16.00;;;15.30;62.30;;;;;;5050481;28;20381;-76
2021/07/22 03:20:52;;;;;;;24.97;16.10;;;15.30;63.40;;;;;;5050063;28;20420;-76
2021/07/22 03:23:18;;;;;;;25.58;15.50;;;15.30;64.00;;;;;;5050593;28;20381;-76
2021/07/22 03:25:44;;;;;;;25.10;15.90;;;15.40;63.50;;;;;;5050724;28;20377;-75
2021/07/22 03:28:09;;;;;;;25.13;16.30;;;15.40;63.60;;;;;;5050191;28;20388;-75
2021/07/22 03:30:35;;;;;;;22.07;15.40;;;15.30;63.80;;;;;;5049621;28;20393;-75
2021/07/22 03:33:03;;;;;;;22.33;15.40;;;15.40;63.60;;;;;;5050554;28;20388;-76
2021/07/22 03:35:29;;;;;;;22.80;15.35;;;15.30;63.50;;;;;;5050979;28;20401;-75
2021/07/22 03:37:58;;;;;;;22.60;15.57;;;15.30;63.30;;;;;;5051324;28;20397;-75
2021/07/22 03:40:23;;;;;;;25.08;14.80;;;15.40;63.00;;;;;;5032463;28;20837;-74
2021/07/22 03:42:49;;;;;;;22.77;15.20;;;15.40;62.20;;;;;;5050526;28;20561;-76
2021/07/22 03:45:14;;;;;;;24.27;16.42;;;15.40;62.60;;;;;;5051104;28;20388;-74
2021/07/22 03:47:40;;;;;;;27.67;16.17;;;15.50;62.70;;;;;;5032755;28;20403;-75
2021/07/22 03:50:06;;;;;;;23.27;15.50;;;15.40;62.60;;;;;;5043689;28;20401;-76
2021/07/22 03:52:31;;;;;;;24.00;15.57;;;15.40;62.90;;;;;;5052578;28;20833;-77
2021/07/22 03:54:57;;;;;;;23.97;15.20;;;15.40;62.90;;;;;;5056053;28;20393;-77
2021/07/22 03:57:23;;;;;;;21.63;15.00;;;15.50;62.50;;;;;;5052532;28;20497;-76
2021/07/22 03:59:48;;;;;;;23.55;15.13;;;15.40;62.80;;;;;;5051163;28;20425;-77
2021/07/22 04:02:14;;;;;;;27.02;16.45;;;15.50;63.00;;;;;;5051273;28;20384;-75
2021/07/22 04:04:39;;;;;;;26.40;15.80;;;15.50;62.50;;;;;;5051129;28;20373;-76
2021/07/22 04:07:05;;;;;;;24.30;15.97;;;15.60;62.50;;;;;;5051309;28;20477;-77
2021/07/22 04:09:30;;;;;;;23.73;15.33;;;15.60;61.40;;;;;;5052116;28;20405;-77
2021/07/22 04:11:56;;;;;;;22.58;14.90;;;15.80;61.10;;;;;;5051775;28;20396;-76
2021/07/22 04:14:21;;;;;;;23.73;15.70;;;15.90;59.30;;;;;;5052067;28;20388;-76
2021/07/22 04:16:47;;;;;;;23.10;15.27;;;16.10;56.60;;;;;;5051199;28;20405;-75
2021/07/22 04:19:12;;;;;;;25.60;15.13;;;16.50;53.40;;;;;;5050301;28;20389;-75
2021/07/22 04:21:38;;;;;;;23.23;14.90;;;16.60;51.50;;;;;;5051440;28;20746;-75
2021/07/22 04:24:04;;;;;;;22.80;15.30;;;16.80;49.60;;;;;;5053649;28;20389;-76
2021/07/22 04:26:29;;;;;;;23.17;15.77;;;16.80;49.60;;;;;;5054823;28;20389;-76
2021/07/22 04:28:55;;;;;;;25.20;15.37;;;16.70;50.30;;;;;;5054721;28;20401;-78
2021/07/22 04:31:21;;;;;;;24.73;15.67;;;16.70;50.40;;;;;;5054976;28;20578;-75
2021/07/22 04:33:48;;;;;;;25.90;15.25;;;16.70;49.60;;;;;;5055645;28;20396;-77
2021/07/22 04:36:14;;;;;;;24.95;16.15;;;16.80;48.70;;;;;;5037360;28;20405;-77
2021/07/22 04:38:39;;;;;;;23.30;14.33;;;16.70;48.90;;;;;;5063991;28;20467;-77
2021/07/22 04:41:05;;;;;;;27.13;16.03;;;16.70;49.20;;;;;;5034761;28;20422;-76
2021/07/22 04:43:31;;;;;;;25.00;15.47;;;16.70;49.30;;;;;;5034999;28;20411;-76
2021/07/22 04:46:01;;;;;;;25.55;15.60;;;16.80;49.70;;;;;;5044288;28;20420;-75
2021/07/22 04:48:27;;;;;;;23.45;15.05;;;16.90;48.20;;;;;;5058232;28;20388;-75
2021/07/22 04:50:52;;;;;;;23.65;14.63;;;16.80;48.00;;;;;;5054437;28;20492;-75
2021/07/22 04:53:18;;;;;;;22.33;15.30;;;16.90;47.50;;;;;;5059450;28;20447;-76
2021/07/22 04:55:44;;;;;;;25.13;14.93;;;16.90;47.40;;;;;;5063558;28;20405;-75
2021/07/22 04:58:09;;;;;;;21.70;15.50;;;17.00;47.30;;;;;;5066611;28;20439;-75
2021/07/22 05:00:35;;;;;;;23.90;14.45;;;17.00;46.80;;;;;;5068305;28;20386;-76
2021/07/22 05:03:01;;;;;;;21.43;13.90;;;17.00;46.70;;;;;;5068945;28;20404;-76
2021/07/22 05:05:27;;;;;;;25.87;15.10;;;17.10;46.50;;;;;;5068601;28;20381;-75
2021/07/22 05:07:53;;;;;;;27.85;14.77;;;17.20;46.40;;;;;;5068868;28;20468;-75
2021/07/22 05:10:18;;;;;;;47.77;21.60;;;17.30;47.20;;;;;;5067416;28;20412;-75
2021/07/22 05:12:44;;;;;;;53.13;21.85;;;17.40;45.90;;;;;;5064215;28;20435;-75
2021/07/22 05:15:11;;;;;;;40.35;17.63;;;17.50;45.40;;;;;;5055285;28;20963;-76
2021/07/22 05:17:37;;;;;;;96.40;33.05;;;17.60;45.00;;;;;;5054420;28;20386;-74
2021/07/22 05:20:03;;;;;;;48.75;22.45;;;17.70;44.40;;;;;;5056101;28;20388;-75
2021/07/22 05:22:29;;;;;;;33.87;16.93;;;17.80;43.30;;;;;;5055254;28;20408;-74
2021/07/22 05:24:54;;;;;;;22.53;14.07;;;17.90;42.60;;;;;;5054588;28;20385;-75
2021/07/22 05:27:20;;;;;;;24.95;15.45;;;18.00;41.80;;;;;;5052429;28;20419;-76
2021/07/22 05:29:46;;;;;;;26.05;15.63;;;18.10;41.40;;;;;;5052989;28;20458;-75
2021/07/22 05:32:14;;;;;;;26.93;15.43;;;18.20;40.90;;;;;;5051191;28;20385;-76
2021/07/22 05:34:40;;;;;;;25.08;16.13;;;18.30;40.20;;;;;;5052513;28;20501;-76
2021/07/22 05:37:07;;;;;;;28.48;16.42;;;18.40;39.40;;;;;;5052535;28;20532;-76
2021/07/22 05:39:34;;;;;;;25.45;16.40;;;18.40;39.30;;;;;;5053644;28;20407;-76
2021/07/22 05:42:00;;;;;;;29.35;16.90;;;18.40;39.50;;;;;;5055186;28;20388;-76
2021/07/22 05:44:25;;;;;;;27.88;15.85;;;18.50;39.20;;;;;;5054456;28;20464;-76
2021/07/22 05:46:51;;;;;;;29.75;15.30;;;18.60;39.20;;;;;;5041990;28;20897;-76
2021/07/22 05:49:16;;;;;;;24.53;15.70;;;18.70;38.90;;;;;;5041554;28;20965;-76
2021/07/22 05:51:42;;;;;;;28.27;16.58;;;18.70;39.00;;;;;;5052570;28;20398;-76
2021/07/22 05:54:09;;;;;;;31.50;17.42;;;18.60;39.20;;;;;;5034285;28;20952;-77
2021/07/22 05:56:36;;;;;;;29.08;18.05;;;18.70;39.20;;;;;;5052023;28;20433;-76
2021/07/22 05:59:02;;;;;;;37.97;17.73;;;18.70;39.00;;;;;;5052151;28;20409;-76
2021/07/22 06:01:27;;;;;;;26.73;17.85;;;18.70;38.80;;;;;;5051948;28;20433;-76
2021/07/22 06:03:53;;;;;;;27.50;17.93;;;18.70;39.00;;;;;;5051945;28;20385;-76
2021/07/22 06:06:18;;;;;;;30.67;18.63;;;18.60;39.00;;;;;;5034295;28;20404;-75
2021/07/22 06:08:44;;;;;;;34.00;19.02;;;18.60;39.30;;;;;;5050731;28;20372;-77
2021/07/22 06:11:12;;;;;;;35.37;18.00;;;18.50;40.00;;;;;;5051765;28;20468;-76
2021/07/22 06:13:38;;;;;;;31.13;17.23;;;18.70;39.90;;;;;;5052128;28;20381;-76
2021/07/22 06:16:07;;;;;;;34.78;17.63;;;18.60;40.00;;;;;;5033454;28;20398;-75
2021/07/22 06:18:33;;;;;;;29.03;17.80;;;18.60;40.00;;;;;;5050693;28;20490;-75
2021/07/22 06:20:58;;;;;;;32.53;17.90;;;18.70;40.00;;;;;;5049828;28;20390;-75
2021/07/22 06:23:24;;;;;;;29.58;18.10;;;18.70;39.80;;;;;;5051918;28;20397;-76
2021/07/22 06:25:58;;;;;;;32.07;17.17;;;18.70;39.70;;;;;;5051496;28;20472;-76
2021/07/22 06:28:24;;;;;;;27.75;17.25;;;18.90;39.50;;;;;;5051528;28;20397;-75
2021/07/22 06:30:51;;;;;;;28.73;18.40;;;18.80;39.60;;;;;;5051286;28;20840;-75
2021/07/22 06:33:16;;;;;;;31.00;17.85;;;18.90;40.20;;;;;;5033381;28;20409;-75
2021/07/22 06:35:42;;;;;;;24.83;17.20;;;18.90;39.30;;;;;;5051215;28;20397;-76
2021/07/22 06:38:07;;;;;;;32.25;18.90;;;18.90;39.10;;;;;;5051433;28;20435;-76
2021/07/22 06:40:34;;;;;;;32.17;18.57;;;18.90;39.40;;;;;;5051433;28;20374;-77
2021/07/22 06:43:00;;;;;;;33.65;20.20;;;19.00;39.50;;;;;;5051125;28;20385;-75
2021/07/22 06:45:26;;;;;;;28.47;18.13;;;19.10;39.70;;;;;;5050725;28;20720;-75
2021/07/22 06:47:51;;;;;;;29.60;18.40;;;19.10;40.00;;;;;;5050553;28;20397;-76
2021/07/22 06:50:17;;;;;;;24.33;16.95;;;19.20;39.90;;;;;;5050776;28;20402;-76
2021/07/22 06:52:43;;;;;;;34.45;17.30;;;19.30;39.40;;;;;;5051009;28;20913;-76
2021/07/22 06:55:08;;;;;;;32.50;18.40;;;19.40;38.90;;;;;;5050816;28;20475;-75
2021/07/22 06:57:34;;;;;;;27.20;16.60;;;19.40;38.80;;;;;;5050411;28;20397;-75
2021/07/22 07:00:00;;;;;;;29.88;17.48;;;19.60;38.50;;;;;;5055767;28;20413;-75
2021/07/22 07:02:26;;;;;;;26.27;17.40;;;19.80;37.20;;;;;;5050777;28;20416;-75
2021/07/22 07:04:51;;;;;;;28.63;16.98;;;20.00;35.50;;;;;;5036534;28;20398;-75
2021/07/22 07:07:17;;;;;;;29.30;16.00;;;20.10;34.60;;;;;;5033372;28;20864;-76
2021/07/22 07:09:42;;;;;;;27.47;17.30;;;20.30;33.90;;;;;;5045638;28;20393;-77
2021/07/22 07:12:09;;;;;;;28.20;17.52;;;20.50;32.50;;;;;;5050511;28;20389;-76
2021/07/22 07:14:35;;;;;;;25.55;16.75;;;20.60;31.60;;;;;;5051095;28;20424;-76
2021/07/22 07:17:01;;;;;;;27.90;17.65;;;20.80;30.80;;;;;;5049010;28;20417;-76
2021/07/22 07:19:27;;;;;;;30.80;18.17;;;21.00;30.40;;;;;;5033222;28;20500;-76
2021/07/22 07:21:52;;;;;;;28.23;17.57;;;21.10;30.10;;;;;;5042160;28;20482;-77
2021/07/22 07:24:18;;;;;;;32.80;17.90;;;21.30;29.70;;;;;;5033999;28;20413;-76
2021/07/22 07:26:43;;;;;;;33.27;17.93;;;21.50;29.50;;;;;;5050930;28;20397;-76
2021/07/22 07:29:09;;;;;;;38.13;19.03;;;21.70;28.80;;;;;;5050103;28;20742;-77
2021/07/22 07:31:35;;;;;;;28.75;18.33;;;22.00;28.00;;;;;;5048957;28;20419;-76
2021/07/22 07:34:00;;;;;;;28.63;17.93;;;22.30;26.50;;;;;;5035438;28;20383;-75
2021/07/22 07:36:26;;;;;;;29.00;18.15;;;22.60;25.80;;;;;;5050439;28;20455;-76
2021/07/22 07:38:51;;;;;;;30.67;18.07;;;22.80;25.30;;;;;;5034076;28;20878;-76
2021/07/22 07:41:17;;;;;;;31.80;18.40;;;23.00;24.20;;;;;;5050232;28;20846;-76
2021/07/22 07:43:42;;;;;;;26.57;17.00;;;23.20;23.60;;;;;;5049620;28;20488;-76
2021/07/22 07:46:08;;;;;;;29.95;18.48;;;23.50;23.40;;;;;;5038182;28;20490;-76
2021/07/22 07:48:33;;;;;;;30.80;17.97;;;23.70;22.00;;;;;;5050273;28;20700;-76
2021/07/22 07:51:05;;;;;;;32.70;17.95;;;23.80;21.70;;;;;;5049391;28;20539;-76
2021/07/22 07:53:31;;;;;;;28.60;18.35;;;24.00;21.80;;;;;;5049765;28;20791;-76
2021/07/22 07:55:56;;;;;;;29.95;18.00;;;24.30;21.10;;;;;;5032139;28;20547;-75
2021/07/22 07:58:23;;;;;;;34.58;18.58;;;24.50;20.00;;;;;;5053095;28;20412;-76
2021/07/22 08:00:48;;;;;;;33.58;18.90;;;24.80;19.40;;;;;;5053457;28;20882;-76
2021/07/22 08:03:19;;;;;;;30.57;18.40;;;25.20;17.80;;;;;;5053981;28;20395;-77
2021/07/22 08:05:46;;;;;;;32.88;19.70;;;25.20;16.80;;;;;;5054160;28;20400;-76
2021/07/22 08:08:11;;;;;;;27.92;17.80;;;25.10;16.80;;;;;;5049679;28;20404;-76
2021/07/22 08:10:41;;;;;;;31.23;18.10;;;25.30;15.90;;;;;;5053296;28;20381;-77
2021/07/22 08:13:11;;;;;;;31.50;18.00;;;25.40;15.70;;;;;;5053130;28;20393;-76
2021/07/22 08:15:37;;;;;;;27.75;17.20;;;25.50;15.00;;;;;;5050292;28;20409;-75
2021/07/22 08:18:03;;;;;;;26.77;16.58;;;25.50;15.00;;;;;;5053635;28;20393;-75
2021/07/22 08:20:29;;;;;;;28.10;16.77;;;25.80;14.70;;;;;;5054007;28;20800;-75
2021/07/22 08:22:54;;;;;;;31.50;18.30;;;25.90;15.10;;;;;;5055025;28;20808;-75
2021/07/22 08:25:20;;;;;;;34.90;17.50;;;25.80;13.80;;;;;;5054558;28;20451;-77
2021/07/22 08:27:46;;;;;;;28.90;18.27;;;25.70;14.40;;;;;;5055015;28;20420;-76
2021/07/22 08:30:12;;;;;;;28.38;18.38;;;25.60;14.40;;;;;;5053304;28;20808;-77
2021/07/22 08:32:37;;;;;;;32.97;18.00;;;25.80;14.10;;;;;;5035463;28;20397;-76
2021/07/22 08:35:04;;;;;;;35.80;17.20;;;26.00;14.50;;;;;;5053704;28;20412;-75
2021/07/22 08:37:30;;;;;;;36.63;19.25;;;26.10;13.60;;;;;;5053620;28;20484;-76
2021/07/22 08:40:00;;;;;;;27.20;17.70;;;26.00;14.20;;;;;;5052954;28;20897;-74
2021/07/22 08:42:27;;;;;;;31.27;18.75;;;26.10;14.20;;;;;;5048422;28;20464;-75
2021/07/22 08:44:54;;;;;;;33.37;18.60;;;26.30;13.80;;;;;;5053061;28;20397;-75
2021/07/22 08:47:20;;;;;;;32.17;19.60;;;26.10;14.50;;;;;;5048733;28;20453;-77
2021/07/22 08:49:45;;;;;;;30.73;18.73;;;25.90;13.80;;;;;;5052794;28;20447;-76
2021/07/22 08:52:12;;;;;;;31.70;18.67;;;25.80;14.60;;;;;;5037204;28;20485;-76
2021/07/22 08:54:39;;;;;;;29.65;18.98;;;25.70;15.10;;;;;;5038936;28;20441;-75
2021/07/22 08:57:10;;;;;;;31.25;19.80;;;25.80;14.90;;;;;;5053780;28;20405;-76
2021/07/22 08:59:36;;;;;;;28.58;19.20;;;25.80;14.70;;;;;;5037029;28;20468;-76
2021/07/22 09:02:03;;;;;;;34.85;19.10;;;25.90;15.10;;;;;;5051591;28;20886;-76
2021/07/22 09:04:29;;;;;;;28.88;18.10;;;26.00;14.50;;;;;;5052241;28;20397;-75
2021/07/22 09:06:56;;;;;;;32.22;19.08;;;26.40;14.10;;;;;;5027018;28;20396;-75
2021/07/22 09:09:22;;;;;;;33.67;19.60;;;26.40;14.30;;;;;;5051541;28;20480;-75
2021/07/22 09:12:00;;;;;;;32.28;19.83;;;26.30;13.90;;;;;;5052373;28;20433;-75
2021/07/22 09:14:28;;;;;;;28.60;18.83;;;26.20;14.70;;;;;;5053975;28;20428;-75
2021/07/22 09:16:54;;;;;;;46.00;20.27;;;26.20;15.50;;;;;;5052071;28;20972;-75
2021/07/22 09:19:39;;;;;;;33.60;18.97;;;26.20;14.90;;;;;;5045496;28;20459;-75
2021/07/22 09:22:09;;;;;;;33.33;19.90;;;26.10;14.90;;;;;;5052900;28;20572;-76
2021/07/22 09:24:55;;;;;;;60.07;37.93;;;26.20;14.50;;;;;;5054568;28;20847;-73
2021/07/22 09:27:43;;;;;;;31.70;16.47;;;26.30;15.00;;;;;;5034898;28;20418;-76
2021/07/22 09:30:16;;;;;;;37.80;19.17;;;26.60;13.80;;;;;;5048863;28;20401;-75
2021/07/22 09:32:45;;;;;;;30.03;16.67;;;26.40;14.60;;;;;;5053145;28;20178;-75
2021/07/22 09:35:16;;;;;;;28.07;18.20;;;26.20;14.80;;;;;;5052476;28;20478;-75
2021/07/22 09:37:47;;;;;;;32.70;18.60;;;26.10;14.90;;;;;;5044954;28;20991;-74
2021/07/22 09:40:17;;;;;;;35.23;19.03;;;26.00;15.30;;;;;;5052172;28;20948;-75
2021/07/22 09:42:47;;;;;;;32.23;17.57;;;26.00;14.70;;;;;;5053718;28;20415;-73
2021/07/22 09:45:27;;;;;;;36.73;19.00;;;26.10;14.50;;;;;;5053425;28;20755;-74
2021/07/22 09:47:55;;;;;;;39.77;16.33;;;26.30;14.30;;;;;;5034492;28;20458;-74
2021/07/22 09:50:24;;;;;;;27.57;16.43;;;26.50;13.60;;;;;;5034375;28;20453;-74
2021/07/22 09:53:08;;;;;;;33.53;17.80;;;26.60;13.60;;;;;;5052922;28;20415;-74
2021/07/22 09:55:34;;;;;;;35.90;17.60;;;25.90;14.30;;;;;;5053057;28;20790;-74
2021/07/22 09:58:03;;;;;;;32.77;17.73;;;25.40;15.90;;;;;;5051569;28;20521;-75
2021/07/22 10:00:30;;;;;;;30.03;16.80;;;25.20;15.70;;;;;;5052794;28;20436;-73
2021/07/22 10:02:59;;;;;;;30.53;17.33;;;25.00;16.10;;;;;;5053499;28;20433;-74
2021/07/22 10:05:29;;;;;;;25.73;15.00;;;24.90;15.80;;;;;;5053601;28;20467;-75
2021/07/22 10:07:56;;;;;;;26.97;16.57;;;25.00;15.60;;;;;;5054925;28;20414;-75
2021/07/22 10:10:24;;;;;;;30.57;16.90;;;25.10;15.40;;;;;;5053041;28;20433;-75
2021/07/22 10:12:57;;;;;;;25.37;14.83;;;25.20;15.80;;;;;;5052809;28;20432;-75
2021/07/22 10:15:27;;;;;;;39.07;18.70;;;25.40;15.70;;;;;;5051560;28;20866;-75
2021/07/22 10:17:57;;;;;;;25.10;15.53;;;25.50;14.50;;;;;;5052841;28;20415;-74
2021/07/22 10:20:28;;;;;;;28.83;15.30;;;25.60;14.10;;;;;;5051889;28;20483;-74
2021/07/22 10:22:54;;;;;;;22.53;14.07;;;25.70;14.00;;;;;;5052815;28;20439;-74
2021/07/22 10:25:19;;;;;;;20.80;12.30;;;26.00;13.50;;;;;;5052444;28;20850;-75
2021/07/22 10:27:45;;;;;;;26.67;14.80;;;26.20;12.30;;;;;;5052876;28;20676;-73
2021/07/22 10:30:13;;;;;;;26.73;16.33;;;26.40;12.10;;;;;;5052754;28;20192;-74
2021/07/22 10:32:42;;;;;;;25.67;13.47;;;26.40;11.90;;;;;;5052442;28;20172;-74
2021/07/22 10:35:08;;;;;;;25.63;15.00;;;26.60;11.40;;;;;;5052588;28;20412;-74
2021/07/22 10:37:34;;;;;;;25.63;15.53;;;26.60;11.80;;;;;;5052380;28;20914;-75
2021/07/22 10:40:05;;;;;;;24.73;14.90;;;26.50;12.20;;;;;;5052981;28;20445;-74
2021/07/22 10:42:45;;;;;;;26.80;16.57;;;26.20;13.10;;;;;;5053421;28;20664;-73
2021/07/22 10:45:20;;;;;;;29.83;18.10;;;26.30;12.30;;;;;;5052711;28;20486;-74
2021/07/22 10:48:05;;;;;;;32.60;19.07;;;26.50;12.70;;;;;;5053583;28;20434;-75
2021/07/22 10:50:53;;;;;;;36.97;18.10;;;26.30;14.00;;;;;;5052698;28;20611;-74
2021/07/22 10:53:53;;;;;;;35.00;20.87;;;25.40;15.40;;;;;;5052971;28;20492;-74
2021/07/22 10:56:41;;;;;;;32.03;17.93;;;25.00;16.70;;;;;;5033591;28;20493;-74
2021/07/22 10:59:07;;;;;;;36.43;18.90;;;24.50;17.10;;;;;;5032837;28;20509;-72
2021/07/22 11:01:41;;;;;;;33.13;19.43;;;24.40;17.50;;;;;;5032639;28;20589;-75
2021/07/22 11:04:31;;;;;;;35.43;18.63;;;24.50;17.40;;;;;;5033248;28;20202;-74
2021/07/22 11:07:00;;;;;;;32.67;18.67;;;24.60;16.90;;;;;;5024469;28;20418;-74
2021/07/22 11:09:44;;;;;;;31.97;19.10;;;24.90;16.40;;;;;;5042872;28;20421;-75
2021/07/22 11:12:30;;;;;;;48.17;20.73;;;25.50;14.80;;;;;;5034503;28;20592;-74
2021/07/22 11:14:58;;;;;;;30.53;16.23;;;26.10;14.00;;;;;;5050580;28;20471;-74
2021/07/22 11:17:31;;;;;;;36.57;18.37;;;26.30;14.20;;;;;;5052623;28;20410;-75
2021/07/22 11:20:21;;;;;;;28.77;17.47;;;26.30;13.10;;;;;;5051349;28;20957;-75
2021/07/22 11:22:49;;;;;;;30.63;19.53;;;26.20;13.40;;;;;;5051175;28;20664;-75
2021/07/22 11:25:16;;;;;;;28.00;16.60;;;26.40;13.40;;;;;;5052379;28;20428;-75
2021/07/22 11:27:46;;;;;;;29.30;17.60;;;26.70;12.90;;;;;;5051857;28;20483;-74
2021/07/22 11:30:13;;;;;;;33.63;19.70;;;26.60;14.40;;;;;;5051067;28;20442;-75
2021/07/22 11:32:39;;;;;;;25.37;16.37;;;26.90;12.70;;;;;;5051651;28;20549;-75
2021/07/22 11:35:05;;;;;;;28.17;15.70;;;27.30;12.30;;;;;;5051729;28;20413;-75
2021/07/22 11:37:31;;;;;;;24.10;16.47;;;27.80;12.00;;;;;;5050863;28;20179;-75
2021/07/22 11:39:57;;;;;;;29.97;18.47;;;28.20;11.10;;;;;;5052067;28;20937;-74
2021/07/22 11:42:23;;;;;;;32.47;17.57;;;27.90;11.40;;;;;;5050365;28;20409;-74
2021/07/22 11:45:09;;;;;;;28.93;17.80;;;27.00;12.70;;;;;;5051703;28;20169;-74
2021/07/22 11:47:35;;;;;;;32.07;18.50;;;26.60;14.20;;;;;;5050676;28;20668;-75
2021/07/22 11:50:01;;;;;;;32.80;19.77;;;26.90;14.40;;;;;;5052250;28;20475;-74
2021/07/22 11:52:28;;;;;;;28.20;17.67;;;27.00;14.50;;;;;;5051160;28;20650;-74
2021/07/22 11:55:10;;;;;;;36.43;20.30;;;27.20;13.20;;;;;;5051935;28;20642;-75
2021/07/22 11:57:43;;;;;;;38.07;20.60;;;27.20;13.90;;;;;;5051384;28;20428;-75
2021/07/22 12:00:15;;;;;;;33.70;18.70;;;27.20;15.10;;;;;;5052277;28;20425;-74
2021/07/22 12:02:46;;;;;;;34.70;23.03;;;26.90;14.50;;;;;;5034254;28;20435;-74
2021/07/22 12:05:12;;;;;;;33.00;21.03;;;26.70;14.20;;;;;;5052485;28;20407;-74
2021/07/22 12:07:38;;;;;;;31.90;20.20;;;26.70;14.60;;;;;;5051623;28;20444;-74
2021/07/22 12:10:04;;;;;;;30.13;19.20;;;26.50;15.40;;;;;;5052398;28;20440;-74
2021/07/22 12:12:30;;;;;;;34.10;21.47;;;26.60;14.90;;;;;;5053063;28;20181;-74
2021/07/22 12:15:07;;;;;;;36.17;22.40;;;26.40;15.30;;;;;;5034678;28;20411;-74
2021/07/22 12:17:37;;;;;;;38.27;22.53;;;26.40;14.90;;;;;;5050451;28;20265;-76
2021/07/22 12:20:04;;;;;;;37.10;20.63;;;26.50;14.60;;;;;;5051824;28;20426;-74
2021/07/22 12:22:37;;;;;;;37.00;21.53;;;26.30;15.50;;;;;;5052252;28;20934;-74
2021/07/22 12:25:06;;;;;;;30.37;20.33;;;26.30;16.30;;;;;;5052100;28;20417;-76
2021/07/22 12:27:42;;;;;;;37.03;21.87;;;26.50;16.40;;;;;;5051903;28;20499;-76
2021/07/22 12:30:16;;;;;;;35.83;21.10;;;26.50;14.70;;;;;;5052703;28;20421;-75